sensor_id;sensor_type;location;lat;lon;timestamp;temperature;humidity
39095;DHT22;24840;47.508;19.376;2023-04-01T00:01:07;9.20;99.90
39095;DHT22;24840;47.508;19.376;2023-04-01T00:03:33;9.10;99.90
39095;DHT22;24840;47.508;19.376;2023-04-01T00:06:00;9.20;99.90
39095;DHT22;24840;47.508;19.376;2023-04-01T00:08:26;9.10;99.90
39095;DHT22;24840;47.508;19.376;2023-04-01T00:10:53;9.20;99.90
39095;DHT22;24840;47.508;19.376;2023-04-01T00:13:19;9.10;99.90
39095;DHT22;24840;47.508;19.376;2023-04-01T00:15:45;9.10;99.90
39095;DHT22;24840;47.508;19.376;2023-04-01T00:18:12;8.90;99.90
39095;DHT22;24840;47.508;19.376;2023-04-01T00:20:39;8.90;99.90
39095;DHT22;24840;47.508;19.376;2023-04-01T00:23:08;9.00;99.90
39095;DHT22;24840;47.508;19.376;2023-04-01T00:25:33;8.90;99.90
39095;DHT22;24840;47.508;19.376;2023-04-01T00:27:59;8.90;99.90
39095;DHT22;24840;47.508;19.376;2023-04-01T00:30:25;8.90;99.90
39095;DHT22;24840;47.508;19.376;2023-04-01T00:32:54;8.90;99.90
39095;DHT22;24840;47.508;19.376;2023-04-01T00:35:20;8.90;99.90
39095;DHT22;24840;47.508;19.376;2023-04-01T00:37:46;8.90;99.90
39095;DHT22;24840;47.508;19.376;2023-04-01T00:40:36;8.90;99.90
39095;DHT22;24840;47.508;19.376;2023-04-01T00:43:05;8.90;99.90
39095;DHT22;24840;47.508;19.376;2023-04-01T00:45:35;8.90;99.90
39095;DHT22;24840;47.508;19.376;2023-04-01T00:48:09;8.90;99.90
39095;DHT22;24840;47.508;19.376;2023-04-01T00:50:35;8.90;99.90
39095;DHT22;24840;47.508;19.376;2023-04-01T00:53:03;8.90;99.90
39095;DHT22;24840;47.508;19.376;2023-04-01T00:55:32;8.90;99.90
39095;DHT22;24840;47.508;19.376;2023-04-01T00:58:00;8.90;99.90
39095;DHT22;24840;47.508;19.376;2023-04-01T01:00:27;8.80;99.90
39095;DHT22;24840;47.508;19.376;2023-04-01T01:02:53;8.70;99.90
39095;DHT22;24840;47.508;19.376;2023-04-01T01:05:27;8.70;99.90
39095;DHT22;24840;47.508;19.376;2023-04-01T01:10:49;8.60;99.90
39095;DHT22;24840;47.508;19.376;2023-04-01T01:15:56;8.70;99.90
39095;DHT22;24840;47.508;19.376;2023-04-01T01:18:44;8.70;99.90
39095;DHT22;24840;47.508;19.376;2023-04-01T01:21:46;8.60;99.90
39095;DHT22;24840;47.508;19.376;2023-04-01T01:27:16;8.60;99.90
39095;DHT22;24840;47.508;19.376;2023-04-01T01:38:15;8.60;99.90
39095;DHT22;24840;47.508;19.376;2023-04-01T01:40:44;8.60;99.90
39095;DHT22;24840;47.508;19.376;2023-04-01T01:43:15;8.60;99.90
39095;DHT22;24840;47.508;19.376;2023-04-01T01:45:46;8.60;99.90
39095;DHT22;24840;47.508;19.376;2023-04-01T01:48:14;8.70;99.90
39095;DHT22;24840;47.508;19.376;2023-04-01T01:50:43;8.60;99.90
39095;DHT22;24840;47.508;19.376;2023-04-01T01:53:13;8.70;99.90
39095;DHT22;24840;47.508;19.376;2023-04-01T01:55:44;8.60;99.90
39095;DHT22;24840;47.508;19.376;2023-04-01T01:58:19;8.50;99.90
39095;DHT22;24840;47.508;19.376;2023-04-01T02:00:50;8.60;99.90
39095;DHT22;24840;47.508;19.376;2023-04-01T02:03:17;8.60;99.90
39095;DHT22;24840;47.508;19.376;2023-04-01T02:05:44;8.50;99.90
39095;DHT22;24840;47.508;19.376;2023-04-01T02:08:39;8.50;99.90
39095;DHT22;24840;47.508;19.376;2023-04-01T02:11:09;8.60;99.90
39095;DHT22;24840;47.508;19.376;2023-04-01T02:13:41;8.60;99.90
39095;DHT22;24840;47.508;19.376;2023-04-01T02:16:26;8.60;99.90
39095;DHT22;24840;47.508;19.376;2023-04-01T02:18:54;8.50;99.90
39095;DHT22;24840;47.508;19.376;2023-04-01T02:21:22;8.50;99.90
39095;DHT22;24840;47.508;19.376;2023-04-01T02:23:50;8.50;99.90
39095;DHT22;24840;47.508;19.376;2023-04-01T02:26:18;8.50;99.90
39095;DHT22;24840;47.508;19.376;2023-04-01T02:28:46;8.60;99.90
39095;DHT22;24840;47.508;19.376;2023-04-01T02:31:14;8.60;99.90
39095;DHT22;24840;47.508;19.376;2023-04-01T02:33:41;8.60;99.90
39095;DHT22;24840;47.508;19.376;2023-04-01T02:36:12;8.60;99.90
39095;DHT22;24840;47.508;19.376;2023-04-01T02:38:39;8.60;99.90
39095;DHT22;24840;47.508;19.376;2023-04-01T02:41:05;8.50;99.90
39095;DHT22;24840;47.508;19.376;2023-04-01T02:43:31;8.40;99.90
39095;DHT22;24840;47.508;19.376;2023-04-01T02:45:57;8.50;99.90
39095;DHT22;24840;47.508;19.376;2023-04-01T02:48:23;8.50;99.90
39095;DHT22;24840;47.508;19.376;2023-04-01T02:50:49;8.50;99.90
39095;DHT22;24840;47.508;19.376;2023-04-01T02:53:15;8.60;99.90
39095;DHT22;24840;47.508;19.376;2023-04-01T02:55:41;8.60;99.90
39095;DHT22;24840;47.508;19.376;2023-04-01T02:58:07;8.60;99.90
39095;DHT22;24840;47.508;19.376;2023-04-01T03:00:33;8.60;99.90
39095;DHT22;24840;47.508;19.376;2023-04-01T03:02:58;8.60;99.90
39095;DHT22;24840;47.508;19.376;2023-04-01T03:05:25;8.60;99.90
39095;DHT22;24840;47.508;19.376;2023-04-01T03:07:51;8.50;99.90
39095;DHT22;24840;47.508;19.376;2023-04-01T03:10:16;8.50;99.90
39095;DHT22;24840;47.508;19.376;2023-04-01T03:12:42;8.60;99.90
39095;DHT22;24840;47.508;19.376;2023-04-01T03:15:11;8.50;99.90
39095;DHT22;24840;47.508;19.376;2023-04-01T03:17:38;8.50;99.90
39095;DHT22;24840;47.508;19.376;2023-04-01T03:20:04;8.50;99.90
39095;DHT22;24840;47.508;19.376;2023-04-01T03:22:30;8.40;99.90
39095;DHT22;24840;47.508;19.376;2023-04-01T03:24:56;8.40;99.90
39095;DHT22;24840;47.508;19.376;2023-04-01T03:27:22;8.30;99.90
39095;DHT22;24840;47.508;19.376;2023-04-01T03:29:48;8.30;99.90
39095;DHT22;24840;47.508;19.376;2023-04-01T03:32:14;8.20;99.90
39095;DHT22;24840;47.508;19.376;2023-04-01T03:34:40;8.20;99.90
39095;DHT22;24840;47.508;19.376;2023-04-01T03:37:06;8.20;99.90
39095;DHT22;24840;47.508;19.376;2023-04-01T03:39:31;8.10;99.90
39095;DHT22;24840;47.508;19.376;2023-04-01T03:41:57;8.10;99.90
39095;DHT22;24840;47.508;19.376;2023-04-01T03:44:23;8.10;99.90
39095;DHT22;24840;47.508;19.376;2023-04-01T03:46:48;8.00;99.90
39095;DHT22;24840;47.508;19.376;2023-04-01T03:49:14;8.10;99.90
39095;DHT22;24840;47.508;19.376;2023-04-01T03:51:41;8.00;99.90
39095;DHT22;24840;47.508;19.376;2023-04-01T03:54:08;8.00;99.90
39095;DHT22;24840;47.508;19.376;2023-04-01T03:56:34;7.90;99.90
39095;DHT22;24840;47.508;19.376;2023-04-01T03:59:02;7.80;99.90
39095;DHT22;24840;47.508;19.376;2023-04-01T04:01:28;7.80;99.90
39095;DHT22;24840;47.508;19.376;2023-04-01T04:03:55;7.60;99.90
39095;DHT22;24840;47.508;19.376;2023-04-01T04:06:22;7.40;99.90
39095;DHT22;24840;47.508;19.376;2023-04-01T04:08:48;7.20;99.90
39095;DHT22;24840;47.508;19.376;2023-04-01T04:11:14;7.30;99.90
39095;DHT22;24840;47.508;19.376;2023-04-01T04:13:40;7.20;99.90
39095;DHT22;24840;47.508;19.376;2023-04-01T04:16:06;7.20;99.90
39095;DHT22;24840;47.508;19.376;2023-04-01T04:18:33;7.20;99.90
39095;DHT22;24840;47.508;19.376;2023-04-01T04:20:58;7.20;99.90
39095;DHT22;24840;47.508;19.376;2023-04-01T04:23:24;7.10;99.90
39095;DHT22;24840;47.508;19.376;2023-04-01T04:25:58;7.10;99.90
39095;DHT22;24840;47.508;19.376;2023-04-01T04:28:25;7.10;99.90
39095;DHT22;24840;47.508;19.376;2023-04-01T04:30:52;6.90;99.90
39095;DHT22;24840;47.508;19.376;2023-04-01T04:33:18;6.90;99.90
39095;DHT22;24840;47.508;19.376;2023-04-01T04:35:43;6.90;99.90
39095;DHT22;24840;47.508;19.376;2023-04-01T04:38:09;6.80;99.90
39095;DHT22;24840;47.508;19.376;2023-04-01T04:40:39;6.80;99.90
39095;DHT22;24840;47.508;19.376;2023-04-01T04:43:05;6.80;99.90
39095;DHT22;24840;47.508;19.376;2023-04-01T04:45:31;6.80;99.90
39095;DHT22;24840;47.508;19.376;2023-04-01T04:47:57;6.90;99.90
39095;DHT22;24840;47.508;19.376;2023-04-01T04:50:24;6.80;99.90
39095;DHT22;24840;47.508;19.376;2023-04-01T04:52:51;6.70;99.90
39095;DHT22;24840;47.508;19.376;2023-04-01T04:55:16;6.70;99.90
39095;DHT22;24840;47.508;19.376;2023-04-01T04:57:42;6.60;99.90
39095;DHT22;24840;47.508;19.376;2023-04-01T05:00:08;6.70;99.90
39095;DHT22;24840;47.508;19.376;2023-04-01T05:02:36;6.70;99.90
39095;DHT22;24840;47.508;19.376;2023-04-01T05:05:01;6.80;99.90
39095;DHT22;24840;47.508;19.376;2023-04-01T05:07:27;6.80;99.90
39095;DHT22;24840;47.508;19.376;2023-04-01T05:09:53;6.90;99.90
39095;DHT22;24840;47.508;19.376;2023-04-01T05:12:18;6.90;99.90
39095;DHT22;24840;47.508;19.376;2023-04-01T05:14:44;6.80;99.90
39095;DHT22;24840;47.508;19.376;2023-04-01T05:17:11;6.90;99.90
39095;DHT22;24840;47.508;19.376;2023-04-01T05:19:37;6.80;99.90
39095;DHT22;24840;47.508;19.376;2023-04-01T05:22:04;6.70;99.90
39095;DHT22;24840;47.508;19.376;2023-04-01T05:24:30;6.80;99.90
39095;DHT22;24840;47.508;19.376;2023-04-01T05:26:56;6.80;99.90
39095;DHT22;24840;47.508;19.376;2023-04-01T05:29:23;6.80;99.90
39095;DHT22;24840;47.508;19.376;2023-04-01T05:31:49;7.00;99.90
39095;DHT22;24840;47.508;19.376;2023-04-01T05:34:15;7.00;99.90
39095;DHT22;24840;47.508;19.376;2023-04-01T05:36:42;7.10;99.90
39095;DHT22;24840;47.508;19.376;2023-04-01T05:39:08;7.10;99.90
39095;DHT22;24840;47.508;19.376;2023-04-01T05:41:38;7.10;99.90
39095;DHT22;24840;47.508;19.376;2023-04-01T05:44:04;7.10;99.90
39095;DHT22;24840;47.508;19.376;2023-04-01T05:46:31;7.20;99.90
39095;DHT22;24840;47.508;19.376;2023-04-01T05:48:57;7.20;99.90
39095;DHT22;24840;47.508;19.376;2023-04-01T05:51:23;7.30;99.90
39095;DHT22;24840;47.508;19.376;2023-04-01T05:53:49;7.40;99.90
39095;DHT22;24840;47.508;19.376;2023-04-01T05:56:15;7.40;99.90
39095;DHT22;24840;47.508;19.376;2023-04-01T05:58:40;7.40;99.90
39095;DHT22;24840;47.508;19.376;2023-04-01T06:01:09;7.60;99.90
39095;DHT22;24840;47.508;19.376;2023-04-01T06:03:35;7.60;99.90
39095;DHT22;24840;47.508;19.376;2023-04-01T06:06:01;7.70;99.90
39095;DHT22;24840;47.508;19.376;2023-04-01T06:08:30;7.80;99.90
39095;DHT22;24840;47.508;19.376;2023-04-01T06:24:53;8.60;99.90
39095;DHT22;24840;47.508;19.376;2023-04-01T06:28:06;8.90;99.90
39095;DHT22;24840;47.508;19.376;2023-04-01T06:36:08;9.40;99.90
39095;DHT22;24840;47.508;19.376;2023-04-01T06:46:29;10.00;99.90
39095;DHT22;24840;47.508;19.376;2023-04-01T06:52:19;10.30;99.90
39095;DHT22;24840;47.508;19.376;2023-04-01T06:54:57;10.30;99.90
39095;DHT22;24840;47.508;19.376;2023-04-01T06:57:24;10.50;99.90
39095;DHT22;24840;47.508;19.376;2023-04-01T06:59:55;10.60;99.90
39095;DHT22;24840;47.508;19.376;2023-04-01T07:02:48;10.70;99.90
39095;DHT22;24840;47.508;19.376;2023-04-01T07:05:19;10.90;99.90
39095;DHT22;24840;47.508;19.376;2023-04-01T07:07:49;11.10;99.90
39095;DHT22;24840;47.508;19.376;2023-04-01T07:10:20;11.30;99.90
39095;DHT22;24840;47.508;19.376;2023-04-01T07:12:51;11.30;99.90
39095;DHT22;24840;47.508;19.376;2023-04-01T07:15:24;11.40;99.90
39095;DHT22;24840;47.508;19.376;2023-04-01T07:18:37;11.30;99.90
39095;DHT22;24840;47.508;19.376;2023-04-01T07:20:42;11.50;99.90
39095;DHT22;24840;47.508;19.376;2023-04-01T07:23:25;11.60;99.90
39095;DHT22;24840;47.508;19.376;2023-04-01T07:25:55;11.50;99.90
39095;DHT22;24840;47.508;19.376;2023-04-01T07:28:23;11.50;99.90
39095;DHT22;24840;47.508;19.376;2023-04-01T07:30:52;11.60;99.90
39095;DHT22;24840;47.508;19.376;2023-04-01T07:33:52;11.70;99.90
39095;DHT22;24840;47.508;19.376;2023-04-01T07:36:43;12.10;99.90
39095;DHT22;24840;47.508;19.376;2023-04-01T07:45:40;13.00;99.90
39095;DHT22;24840;47.508;19.376;2023-04-01T07:53:36;13.70;99.90
39095;DHT22;24840;47.508;19.376;2023-04-01T08:01:26;13.90;99.90
39095;DHT22;24840;47.508;19.376;2023-04-01T08:06:28;14.00;99.90
39095;DHT22;24840;47.508;19.376;2023-04-01T08:09:28;14.30;99.90
39095;DHT22;24840;47.508;19.376;2023-04-01T08:14:33;14.40;99.90
39095;DHT22;24840;47.508;19.376;2023-04-01T08:17:10;14.30;99.90
39095;DHT22;24840;47.508;19.376;2023-04-01T08:23:30;14.90;99.90
39095;DHT22;24840;47.508;19.376;2023-04-01T08:25:30;14.90;99.90
39095;DHT22;24840;47.508;19.376;2023-04-01T08:28:11;14.60;99.80
39095;DHT22;24840;47.508;19.376;2023-04-01T08:31:04;14.30;99.90
39095;DHT22;24840;47.508;19.376;2023-04-01T08:33:32;13.90;99.90
39095;DHT22;24840;47.508;19.376;2023-04-01T08:36:08;13.60;99.90
39095;DHT22;24840;47.508;19.376;2023-04-01T08:38:55;13.50;99.90
39095;DHT22;24840;47.508;19.376;2023-04-01T09:15:24;13.70;99.90
39095;DHT22;24840;47.508;19.376;2023-04-01T09:34:38;15.70;98.00
39095;DHT22;24840;47.508;19.376;2023-04-01T09:36:47;15.70;97.90
39095;DHT22;24840;47.508;19.376;2023-04-01T09:42:23;14.60;98.00
39095;DHT22;24840;47.508;19.376;2023-04-01T10:38:28;14.60;98.10
39095;DHT22;24840;47.508;19.376;2023-04-01T10:57:10;14.00;98.60
39095;DHT22;24840;47.508;19.376;2023-04-01T11:05:55;13.40;99.20
39095;DHT22;24840;47.508;19.376;2023-04-01T11:08:56;13.50;98.70
39095;DHT22;24840;47.508;19.376;2023-04-01T11:28:35;14.60;98.10
39095;DHT22;24840;47.508;19.376;2023-04-01T11:39:44;15.20;95.80
39095;DHT22;24840;47.508;19.376;2023-04-01T11:42:18;15.40;95.30
39095;DHT22;24840;47.508;19.376;2023-04-01T11:50:53;17.20;93.90
39095;DHT22;24840;47.508;19.376;2023-04-01T11:56:17;17.70;94.80
39095;DHT22;24840;47.508;19.376;2023-04-01T12:13:40;17.90;91.40
39095;DHT22;24840;47.508;19.376;2023-04-01T12:20:45;18.10;90.80
39095;DHT22;24840;47.508;19.376;2023-04-01T12:31:07;17.80;90.40
39095;DHT22;24840;47.508;19.376;2023-04-01T12:41:46;15.90;92.30
39095;DHT22;24840;47.508;19.376;2023-04-01T12:50:28;16.70;92.00
39095;DHT22;24840;47.508;19.376;2023-04-01T12:55:43;16.90;92.70
39095;DHT22;24840;47.508;19.376;2023-04-01T13:04:26;17.20;90.10
39095;DHT22;24840;47.508;19.376;2023-04-01T13:20:43;17.80;84.90
39095;DHT22;24840;47.508;19.376;2023-04-01T13:26:48;17.30;83.40
39095;DHT22;24840;47.508;19.376;2023-04-01T13:29:59;17.60;88.80
39095;DHT22;24840;47.508;19.376;2023-04-01T13:41:04;17.90;82.70
39095;DHT22;24840;47.508;19.376;2023-04-01T13:43:26;18.10;81.70
39095;DHT22;24840;47.508;19.376;2023-04-01T13:51:58;19.30;81.30
39095;DHT22;24840;47.508;19.376;2023-04-01T13:54:57;19.10;76.40
39095;DHT22;24840;47.508;19.376;2023-04-01T14:05:51;19.50;78.80
39095;DHT22;24840;47.508;19.376;2023-04-01T14:20:03;18.20;80.30
39095;DHT22;24840;47.508;19.376;2023-04-01T14:28:42;17.00;78.70
39095;DHT22;24840;47.508;19.376;2023-04-01T14:34:15;17.90;77.10
39095;DHT22;24840;47.508;19.376;2023-04-01T14:40:02;17.30;79.00
39095;DHT22;24840;47.508;19.376;2023-04-01T14:50:53;17.20;81.50
39095;DHT22;24840;47.508;19.376;2023-04-01T14:55:52;16.60;83.10
39095;DHT22;24840;47.508;19.376;2023-04-01T14:58:20;16.90;83.60
39095;DHT22;24840;47.508;19.376;2023-04-01T15:07:06;17.10;80.60
39095;DHT22;24840;47.508;19.376;2023-04-01T15:12:30;17.40;84.60
39095;DHT22;24840;47.508;19.376;2023-04-01T15:25:51;16.70;82.90
39095;DHT22;24840;47.508;19.376;2023-04-01T15:36:56;16.80;83.60
39095;DHT22;24840;47.508;19.376;2023-04-01T16:02:32;15.70;84.20
39095;DHT22;24840;47.508;19.376;2023-04-01T16:21:45;15.10;90.20
39095;DHT22;24840;47.508;19.376;2023-04-01T16:26:54;15.00;90.30
39095;DHT22;24840;47.508;19.376;2023-04-01T16:29:52;15.00;90.30
39095;DHT22;24840;47.508;19.376;2023-04-01T16:35:25;14.70;90.90
39095;DHT22;24840;47.508;19.376;2023-04-01T16:46:38;14.60;91.50
39095;DHT22;24840;47.508;19.376;2023-04-01T16:54:28;14.50;91.70
39095;DHT22;24840;47.508;19.376;2023-04-01T17:02:14;14.00;92.20
39095;DHT22;24840;47.508;19.376;2023-04-01T17:05:19;13.90;92.50
39095;DHT22;24840;47.508;19.376;2023-04-01T17:21:28;13.20;93.40
39095;DHT22;24840;47.508;19.376;2023-04-01T17:26:42;13.00;94.40
39095;DHT22;24840;47.508;19.376;2023-04-01T17:35:11;12.70;94.70
39095;DHT22;24840;47.508;19.376;2023-04-01T17:37:42;12.80;94.60
39095;DHT22;24840;47.508;19.376;2023-04-01T17:46:01;12.60;96.20
39095;DHT22;24840;47.508;19.376;2023-04-01T17:48:52;12.40;96.90
39095;DHT22;24840;47.508;19.376;2023-04-01T18:02:31;11.80;98.60
39095;DHT22;24840;47.508;19.376;2023-04-01T18:05:18;11.70;99.50
39095;DHT22;24840;47.508;19.376;2023-04-01T18:21:53;11.00;99.90
39095;DHT22;24840;47.508;19.376;2023-04-01T18:24:33;10.70;99.90
39095;DHT22;24840;47.508;19.376;2023-04-01T18:27:38;10.60;99.90
39095;DHT22;24840;47.508;19.376;2023-04-01T18:30:20;10.60;99.90
39095;DHT22;24840;47.508;19.376;2023-04-01T18:46:27;10.20;99.90
39095;DHT22;24840;47.508;19.376;2023-04-01T18:51:51;10.10;99.90
39095;DHT22;24840;47.508;19.376;2023-04-01T18:57:14;9.90;99.90
39095;DHT22;24840;47.508;19.376;2023-04-01T19:00:03;9.70;99.90
39095;DHT22;24840;47.508;19.376;2023-04-01T19:02:48;9.60;99.90
39095;DHT22;24840;47.508;19.376;2023-04-01T19:05:31;9.40;99.90
39095;DHT22;24840;47.508;19.376;2023-04-01T19:08:32;9.50;99.90
39095;DHT22;24840;47.508;19.376;2023-04-01T19:16:12;9.30;99.90
39095;DHT22;24840;47.508;19.376;2023-04-01T19:24:54;9.10;99.90
39095;DHT22;24840;47.508;19.376;2023-04-01T19:27:42;9.10;99.90
39095;DHT22;24840;47.508;19.376;2023-04-01T19:38:28;8.80;99.90
39095;DHT22;24840;47.508;19.376;2023-04-01T19:41:26;8.80;99.90
39095;DHT22;24840;47.508;19.376;2023-04-01T19:44:48;8.70;99.90
39095;DHT22;24840;47.508;19.376;2023-04-01T19:47:22;8.60;99.90
39095;DHT22;24840;47.508;19.376;2023-04-01T19:52:30;8.60;99.90
39095;DHT22;24840;47.508;19.376;2023-04-01T19:55:14;8.40;99.90
39095;DHT22;24840;47.508;19.376;2023-04-01T19:58:05;8.40;99.90
39095;DHT22;24840;47.508;19.376;2023-04-01T20:00:36;8.30;99.90
39095;DHT22;24840;47.508;19.376;2023-04-01T20:11:14;8.30;99.90
39095;DHT22;24840;47.508;19.376;2023-04-01T20:16:21;8.20;99.90
39095;DHT22;24840;47.508;19.376;2023-04-01T20:19:02;8.20;99.90
39095;DHT22;24840;47.508;19.376;2023-04-01T20:21:56;8.10;99.90
39095;DHT22;24840;47.508;19.376;2023-04-01T20:24:29;8.10;99.90
39095;DHT22;24840;47.508;19.376;2023-04-01T20:27:09;8.00;99.90
39095;DHT22;24840;47.508;19.376;2023-04-01T20:32:56;7.90;99.90
39095;DHT22;24840;47.508;19.376;2023-04-01T20:35:35;7.80;99.90
39095;DHT22;24840;47.508;19.376;2023-04-01T20:40:45;7.80;99.90
39095;DHT22;24840;47.508;19.376;2023-04-01T20:46:14;7.80;99.90
39095;DHT22;24840;47.508;19.376;2023-04-01T20:51:41;7.60;99.90
39095;DHT22;24840;47.508;19.376;2023-04-01T20:54:18;7.70;99.90
39095;DHT22;24840;47.508;19.376;2023-04-01T20:59:53;7.60;99.90
39095;DHT22;24840;47.508;19.376;2023-04-01T21:07:28;7.30;99.90
39095;DHT22;24840;47.508;19.376;2023-04-01T21:10:31;7.30;99.90
39095;DHT22;24840;47.508;19.376;2023-04-01T21:24:36;7.00;99.90
39095;DHT22;24840;47.508;19.376;2023-04-01T21:27:39;7.00;99.90
39095;DHT22;24840;47.508;19.376;2023-04-01T21:58:32;6.30;99.90
39095;DHT22;24840;47.508;19.376;2023-04-01T22:06:42;6.20;99.90
39095;DHT22;24840;47.508;19.376;2023-04-01T22:09:18;6.20;99.90
39095;DHT22;24840;47.508;19.376;2023-04-01T22:12:07;6.20;99.90
39095;DHT22;24840;47.508;19.376;2023-04-01T22:14:56;6.10;99.90
39095;DHT22;24840;47.508;19.376;2023-04-01T22:23:13;5.90;99.90
39095;DHT22;24840;47.508;19.376;2023-04-01T22:31:03;5.70;99.90
39095;DHT22;24840;47.508;19.376;2023-04-01T22:48:30;5.60;99.90
39095;DHT22;24840;47.508;19.376;2023-04-01T22:56:16;5.30;99.90
39095;DHT22;24840;47.508;19.376;2023-04-01T22:58:51;5.30;99.90
39095;DHT22;24840;47.508;19.376;2023-04-01T23:01:29;5.10;99.90
39095;DHT22;24840;47.508;19.376;2023-04-01T23:03:58;5.10;99.90
39095;DHT22;24840;47.508;19.376;2023-04-01T23:06:27;5.10;99.90
39095;DHT22;24840;47.508;19.376;2023-04-01T23:09:11;5.10;99.90
39095;DHT22;24840;47.508;19.376;2023-04-01T23:24:53;5.10;99.90
39095;DHT22;24840;47.508;19.376;2023-04-01T23:27:33;5.10;99.90
39095;DHT22;24840;47.508;19.376;2023-04-01T23:30:02;5.10;99.90
39095;DHT22;24840;47.508;19.376;2023-04-01T23:32:28;5.10;99.90
39095;DHT22;24840;47.508;19.376;2023-04-01T23:34:59;5.00;99.90
39095;DHT22;24840;47.508;19.376;2023-04-01T23:37:26;5.00;99.90
39095;DHT22;24840;47.508;19.376;2023-04-01T23:39:54;5.00;99.90
39095;DHT22;24840;47.508;19.376;2023-04-01T23:42:26;5.00;99.90
39095;DHT22;24840;47.508;19.376;2023-04-01T23:44:56;4.80;99.90
39095;DHT22;24840;47.508;19.376;2023-04-01T23:47:32;4.90;99.90
39095;DHT22;24840;47.508;19.376;2023-04-01T23:50:04;4.80;99.90
39095;DHT22;24840;47.508;19.376;2023-04-01T23:52:35;4.70;99.90
39095;DHT22;24840;47.508;19.376;2023-04-01T23:55:14;4.70;99.90
